Cornell, Illinois
Current Conditions -  °F | °C
As of 8:55 PM on Wednesday 26 Nov 2014 (Local Time) from KPNT Reporting Station
Overcast Overcast  
Wind Chill: 19°   Ceiling: 2000
Heat Index: 28°   Visibility: 10mi
Dew Point: 22°   Wind: 9mph
Humidity: 81%   Direction: 10°N
Pressure: 30.18"   Gusts: NA
Location:  40.99°N, 88.73°W
Report Text: KPNT 270255Z AUTO 01008KT 10SM OVC020 M02/M05 A3018 RMK AO2 T10251053
Loading
Personal Weather Stations






























Interactive Weather Map New forecast layout! Learn more

10-Day Weather Forecast

Advertisements
Track Severe Weather on mobile